sensor_id;sensor_type;location;lat;lon;timestamp;pressure;altitude;pressure_sealevel;temperature;humidity
70229;BME280;57617;51.988;5.854;2023-05-23T00:00:56;101355.28;;;19.56;61.96
70229;BME280;57617;51.988;5.854;2023-05-23T00:03:22;101345.66;;;19.54;61.48
70229;BME280;57617;51.988;5.854;2023-05-23T00:05:48;101341.50;;;19.56;61.63
70229;BME280;57617;51.988;5.854;2023-05-23T00:08:14;101355.28;;;19.56;61.75
70229;BME280;57617;51.988;5.854;2023-05-23T00:10:40;101356.69;;;19.54;61.64
70229;BME280;57617;51.988;5.854;2023-05-23T00:13:05;101345.38;;;19.50;61.99
70229;BME280;57617;51.988;5.854;2023-05-23T00:15:36;101350.66;;;19.47;61.58
70229;BME280;57617;51.988;5.854;2023-05-23T00:18:02;101349.28;;;19.44;61.78
70229;BME280;57617;51.988;5.854;2023-05-23T00:20:27;101338.88;;;19.41;61.94
70229;BME280;57617;51.988;5.854;2023-05-23T00:22:54;101349.59;;;19.38;61.82
70229;BME280;57617;51.988;5.854;2023-05-23T00:25:25;101352.41;;;19.33;62.17
70229;BME280;57617;51.988;5.854;2023-05-23T00:28:01;101353.25;;;19.28;62.36
70229;BME280;57617;51.988;5.854;2023-05-23T00:30:28;101349.16;;;19.26;62.37
70229;BME280;57617;51.988;5.854;2023-05-23T00:32:54;101357.41;;;19.26;62.43
70229;BME280;57617;51.988;5.854;2023-05-23T00:35:20;101369.53;;;19.25;62.36
70229;BME280;57617;51.988;5.854;2023-05-23T00:37:46;101362.09;;;19.20;62.73
70229;BME280;57617;51.988;5.854;2023-05-23T00:40:14;101366.25;;;19.18;62.68
70229;BME280;57617;51.988;5.854;2023-05-23T00:42:39;101364.59;;;19.17;62.95
70229;BME280;57617;51.988;5.854;2023-05-23T00:45:05;101357.47;;;19.11;62.77
70229;BME280;57617;51.988;5.854;2023-05-23T00:47:30;101366.28;;;19.13;62.86
70229;BME280;57617;51.988;5.854;2023-05-23T00:49:56;101372.38;;;19.05;63.33
70229;BME280;57617;51.988;5.854;2023-05-23T00:52:21;101371.84;;;19.03;63.42
70229;BME280;57617;51.988;5.854;2023-05-23T00:54:46;101367.72;;;19.00;63.85
70229;BME280;57617;51.988;5.854;2023-05-23T00:57:12;101370.16;;;19.02;63.70
70229;BME280;57617;51.988;5.854;2023-05-23T00:59:37;101377.34;;;19.03;63.42
70229;BME280;57617;51.988;5.854;2023-05-23T01:02:03;101374.88;;;18.96;63.62
70229;BME280;57617;51.988;5.854;2023-05-23T01:04:28;101377.38;;;18.93;63.62
70229;BME280;57617;51.988;5.854;2023-05-23T01:06:58;101371.91;;;18.88;64.02
70229;BME280;57617;51.988;5.854;2023-05-23T01:09:26;101376.03;;;18.85;64.06
70229;BME280;57617;51.988;5.854;2023-05-23T01:12:04;101375.22;;;18.85;64.33
70229;BME280;57617;51.988;5.854;2023-05-23T01:20:51;101385.13;;;18.76;64.81
70229;BME280;57617;51.988;5.854;2023-05-23T01:23:40;101385.44;;;18.74;65.06
70229;BME280;57617;51.988;5.854;2023-05-23T01:26:31;101382.41;;;18.71;64.96
70229;BME280;57617;51.988;5.854;2023-05-23T01:29:07;101389.28;;;18.68;65.02
70229;BME280;57617;51.988;5.854;2023-05-23T01:31:38;101387.38;;;18.69;64.46
70229;BME280;57617;51.988;5.854;2023-05-23T01:34:06;101384.63;;;18.69;64.59
70229;BME280;57617;51.988;5.854;2023-05-23T01:36:33;101381.34;;;18.67;64.32
70229;BME280;57617;51.988;5.854;2023-05-23T01:39:01;101372.53;;;18.60;64.70
70229;BME280;57617;51.988;5.854;2023-05-23T01:41:27;101378.59;;;18.67;64.53
70229;BME280;57617;51.988;5.854;2023-05-23T01:43:53;101378.00;;;18.75;64.47
70229;BME280;57617;51.988;5.854;2023-05-23T01:46:20;101387.38;;;18.74;64.21
70229;BME280;57617;51.988;5.854;2023-05-23T01:48:46;101389.56;;;18.77;64.44
70229;BME280;57617;51.988;5.854;2023-05-23T01:51:13;101381.03;;;18.73;64.53
70229;BME280;57617;51.988;5.854;2023-05-23T01:53:38;101387.63;;;18.77;64.42
70229;BME280;57617;51.988;5.854;2023-05-23T01:56:04;101390.66;;;18.76;64.40
70229;BME280;57617;51.988;5.854;2023-05-23T01:58:29;101390.91;;;18.79;64.56
70229;BME280;57617;51.988;5.854;2023-05-23T02:00:55;101400.28;;;18.73;64.54
70229;BME280;57617;51.988;5.854;2023-05-23T02:03:20;101401.41;;;18.67;64.45
70229;BME280;57617;51.988;5.854;2023-05-23T02:05:45;101400.63;;;18.62;64.64
70229;BME280;57617;51.988;5.854;2023-05-23T02:08:11;101404.75;;;18.59;64.87
70229;BME280;57617;51.988;5.854;2023-05-23T02:10:36;101407.50;;;18.59;64.86
70229;BME280;57617;51.988;5.854;2023-05-23T02:13:01;101403.66;;;18.55;64.92
70229;BME280;57617;51.988;5.854;2023-05-23T02:15:27;101402.56;;;18.51;64.81
70229;BME280;57617;51.988;5.854;2023-05-23T02:17:52;101405.31;;;18.46;64.96
70229;BME280;57617;51.988;5.854;2023-05-23T02:20:17;101416.59;;;18.50;65.24
70229;BME280;57617;51.988;5.854;2023-05-23T02:22:43;101422.66;;;18.47;65.05
70229;BME280;57617;51.988;5.854;2023-05-23T02:25:08;101413.56;;;18.46;64.86
70229;BME280;57617;51.988;5.854;2023-05-23T02:27:33;101418.25;;;18.46;65.13
70229;BME280;57617;51.988;5.854;2023-05-23T02:29:59;101417.16;;;18.47;64.92
70229;BME280;57617;51.988;5.854;2023-05-23T02:32:24;101422.09;;;18.45;65.34
70229;BME280;57617;51.988;5.854;2023-05-23T02:34:50;101413.84;;;18.45;65.36
70229;BME280;57617;51.988;5.854;2023-05-23T02:37:15;101418.56;;;18.39;65.53
70229;BME280;57617;51.988;5.854;2023-05-23T02:39:42;101423.22;;;18.34;65.27
70229;BME280;57617;51.988;5.854;2023-05-23T02:42:07;101427.59;;;18.29;65.63
70229;BME280;57617;51.988;5.854;2023-05-23T02:44:33;101428.97;;;18.37;65.53
70229;BME280;57617;51.988;5.854;2023-05-23T02:46:58;101432.31;;;18.39;65.49
70229;BME280;57617;51.988;5.854;2023-05-23T02:49:23;101434.75;;;18.41;65.44
70229;BME280;57617;51.988;5.854;2023-05-23T02:51:48;101445.75;;;18.46;65.22
70229;BME280;57617;51.988;5.854;2023-05-23T02:54:14;101420.19;;;18.40;65.36
70229;BME280;57617;51.988;5.854;2023-05-23T02:56:40;101436.13;;;18.43;65.19
70229;BME280;57617;51.988;5.854;2023-05-23T02:59:05;101429.81;;;18.43;65.13
70229;BME280;57617;51.988;5.854;2023-05-23T03:01:30;101444.09;;;18.45;65.55
70229;BME280;57617;51.988;5.854;2023-05-23T03:03:56;101437.50;;;18.46;65.62
70229;BME280;57617;51.988;5.854;2023-05-23T03:06:21;101439.72;;;18.44;65.37
70229;BME280;57617;51.988;5.854;2023-05-23T03:08:47;101422.09;;;18.29;65.44
70229;BME280;57617;51.988;5.854;2023-05-23T03:11:12;101436.97;;;18.44;65.23
70229;BME280;57617;51.988;5.854;2023-05-23T03:13:37;101431.19;;;18.40;65.35
70229;BME280;57617;51.988;5.854;2023-05-23T03:16:03;101439.44;;;18.40;65.45
70229;BME280;57617;51.988;5.854;2023-05-23T03:18:28;101438.88;;;18.38;65.58
70229;BME280;57617;51.988;5.854;2023-05-23T03:20:53;101431.16;;;18.30;65.43
70229;BME280;57617;51.988;5.854;2023-05-23T03:23:18;101439.69;;;18.28;65.54
70229;BME280;57617;51.988;5.854;2023-05-23T03:25:44;101439.16;;;18.27;65.27
70229;BME280;57617;51.988;5.854;2023-05-23T03:28:09;101440.25;;;18.26;65.42
70229;BME280;57617;51.988;5.854;2023-05-23T03:30:36;101444.66;;;18.27;65.48
70229;BME280;57617;51.988;5.854;2023-05-23T03:33:01;101442.19;;;18.25;65.37
70229;BME280;57617;51.988;5.854;2023-05-23T03:35:27;101445.47;;;18.27;65.22
70229;BME280;57617;51.988;5.854;2023-05-23T03:37:52;101447.41;;;18.27;64.88
70229;BME280;57617;51.988;5.854;2023-05-23T03:40:17;101441.91;;;18.27;65.40
70229;BME280;57617;51.988;5.854;2023-05-23T03:42:43;101441.06;;;18.26;65.22
70229;BME280;57617;51.988;5.854;2023-05-23T03:45:08;101442.44;;;18.23;65.12
70229;BME280;57617;51.988;5.854;2023-05-23T03:47:33;101451.81;;;18.23;64.83
70229;BME280;57617;51.988;5.854;2023-05-23T03:49:59;101423.47;;;18.07;65.07
70229;BME280;57617;51.988;5.854;2023-05-23T03:52:24;101447.41;;;18.22;65.24
70229;BME280;57617;51.988;5.854;2023-05-23T03:54:49;101452.91;;;18.22;65.25
70229;BME280;57617;51.988;5.854;2023-05-23T03:57:15;101454.56;;;18.23;65.06
70229;BME280;57617;51.988;5.854;2023-05-23T03:59:40;101458.69;;;18.25;65.19
70229;BME280;57617;51.988;5.854;2023-05-23T04:02:05;101462.81;;;18.23;65.27
70229;BME280;57617;51.988;5.854;2023-05-23T04:04:30;101456.47;;;18.22;65.19
70229;BME280;57617;51.988;5.854;2023-05-23T04:06:56;101456.75;;;18.21;64.96
70229;BME280;57617;51.988;5.854;2023-05-23T04:09:22;101463.06;;;18.21;65.00
70229;BME280;57617;51.988;5.854;2023-05-23T04:11:47;101466.94;;;18.20;64.75
70229;BME280;57617;51.988;5.854;2023-05-23T04:14:12;101467.47;;;18.22;64.83
70229;BME280;57617;51.988;5.854;2023-05-23T04:16:38;101467.47;;;18.27;64.91
70229;BME280;57617;51.988;5.854;2023-05-23T04:19:06;101466.66;;;18.27;64.68
70229;BME280;57617;51.988;5.854;2023-05-23T04:21:32;101479.56;;;18.31;64.65
70229;BME280;57617;51.988;5.854;2023-05-23T04:23:57;101476.31;;;18.34;64.60
70229;BME280;57617;51.988;5.854;2023-05-23T04:26:23;101481.53;;;18.36;64.71
70229;BME280;57617;51.988;5.854;2023-05-23T04:28:49;101482.09;;;18.38;64.76
70229;BME280;57617;51.988;5.854;2023-05-23T04:31:18;101490.88;;;18.40;64.45
70229;BME280;57617;51.988;5.854;2023-05-23T04:33:43;101488.69;;;18.42;64.46
70229;BME280;57617;51.988;5.854;2023-05-23T04:36:09;101490.34;;;18.43;64.54
70229;BME280;57617;51.988;5.854;2023-05-23T04:38:35;101482.59;;;18.29;64.27
70229;BME280;57617;51.988;5.854;2023-05-23T04:41:03;101500.78;;;18.36;64.50
70229;BME280;57617;51.988;5.854;2023-05-23T04:43:30;101499.97;;;18.35;64.35
70229;BME280;57617;51.988;5.854;2023-05-23T04:45:57;101506.00;;;18.32;64.38
70229;BME280;57617;51.988;5.854;2023-05-23T04:48:22;101514.00;;;18.34;64.36
70229;BME280;57617;51.988;5.854;2023-05-23T04:50:48;101509.03;;;18.36;64.19
70229;BME280;57617;51.988;5.854;2023-05-23T04:53:15;101497.72;;;18.22;64.04
70229;BME280;57617;51.988;5.854;2023-05-23T04:55:40;101511.19;;;18.23;64.15
70229;BME280;57617;51.988;5.854;2023-05-23T04:58:05;101524.41;;;18.22;64.38
70229;BME280;57617;51.988;5.854;2023-05-23T05:00:31;101520.81;;;18.16;64.14
70229;BME280;57617;51.988;5.854;2023-05-23T05:02:57;101527.69;;;18.18;64.06
70229;BME280;57617;51.988;5.854;2023-05-23T05:05:22;101524.69;;;18.15;64.08
70229;BME280;57617;51.988;5.854;2023-05-23T05:07:47;101537.59;;;18.14;63.89
70229;BME280;57617;51.988;5.854;2023-05-23T05:10:13;101544.47;;;18.12;63.98
70229;BME280;57617;51.988;5.854;2023-05-23T05:12:44;101542.53;;;18.08;64.02
70229;BME280;57617;51.988;5.854;2023-05-23T05:15:16;101541.41;;;18.03;64.23
70229;BME280;57617;51.988;5.854;2023-05-23T05:17:42;101542.50;;;17.98;64.16
70229;BME280;57617;51.988;5.854;2023-05-23T05:20:08;101552.38;;;17.93;64.20
70229;BME280;57617;51.988;5.854;2023-05-23T05:22:35;101557.88;;;17.88;64.14
70229;BME280;57617;51.988;5.854;2023-05-23T05:25:01;101563.09;;;17.85;64.27
70229;BME280;57617;51.988;5.854;2023-05-23T05:27:28;101568.03;;;17.83;64.54
70229;BME280;57617;51.988;5.854;2023-05-23T05:29:53;101574.34;;;17.78;64.48
70229;BME280;57617;51.988;5.854;2023-05-23T05:32:22;101572.69;;;17.77;64.46
70229;BME280;57617;51.988;5.854;2023-05-23T05:34:48;101574.88;;;17.76;64.45
70229;BME280;57617;51.988;5.854;2023-05-23T05:37:13;101578.44;;;17.76;64.36
70229;BME280;57617;51.988;5.854;2023-05-23T05:39:39;101573.78;;;17.72;64.52
70229;BME280;57617;51.988;5.854;2023-05-23T05:42:04;101579.25;;;17.67;64.61
70229;BME280;57617;51.988;5.854;2023-05-23T05:44:29;101576.75;;;17.65;64.40
70229;BME280;57617;51.988;5.854;2023-05-23T05:46:55;101580.59;;;17.64;64.62
70229;BME280;57617;51.988;5.854;2023-05-23T05:49:20;101577.03;;;17.63;64.63
70229;BME280;57617;51.988;5.854;2023-05-23T05:51:46;101583.34;;;17.59;64.39
70229;BME280;57617;51.988;5.854;2023-05-23T05:54:12;101561.53;;;17.42;64.36
70229;BME280;57617;51.988;5.854;2023-05-23T05:56:37;101592.94;;;17.57;64.55
70229;BME280;57617;51.988;5.854;2023-05-23T05:59:02;101584.66;;;17.52;64.41
70229;BME280;57617;51.988;5.854;2023-05-23T06:01:27;101597.00;;;17.44;64.29
70229;BME280;57617;51.988;5.854;2023-05-23T06:03:53;101596.16;;;17.39;64.35
70229;BME280;57617;51.988;5.854;2023-05-23T06:06:18;101596.91;;;17.34;64.44
70229;BME280;57617;51.988;5.854;2023-05-23T06:08:43;101597.47;;;17.36;64.36
70229;BME280;57617;51.988;5.854;2023-05-23T06:11:09;101612.56;;;17.33;64.44
70229;BME280;57617;51.988;5.854;2023-05-23T06:13:34;101613.63;;;17.32;64.37
70229;BME280;57617;51.988;5.854;2023-05-23T06:15:59;101618.88;;;17.34;64.26
70229;BME280;57617;51.988;5.854;2023-05-23T06:18:25;101619.47;;;17.36;64.21
70229;BME280;57617;51.988;5.854;2023-05-23T06:20:50;101620.81;;;17.33;64.03
70229;BME280;57617;51.988;5.854;2023-05-23T06:23:15;101627.13;;;17.34;64.07
70229;BME280;57617;51.988;5.854;2023-05-23T06:25:41;101617.44;;;17.26;63.62
70229;BME280;57617;51.988;5.854;2023-05-23T06:28:06;101624.56;;;17.22;63.49
70229;BME280;57617;51.988;5.854;2023-05-23T06:30:31;101627.81;;;17.14;63.48
70229;BME280;57617;51.988;5.854;2023-05-23T06:32:58;101636.28;;;17.08;63.62
70229;BME280;57617;51.988;5.854;2023-05-23T06:35:24;101643.13;;;17.05;63.30
70229;BME280;57617;51.988;5.854;2023-05-23T06:37:49;101642.59;;;17.08;63.37
70229;BME280;57617;51.988;5.854;2023-05-23T06:40:14;101644.50;;;17.08;63.37
70229;BME280;57617;51.988;5.854;2023-05-23T06:42:40;101634.66;;;17.12;63.10
70229;BME280;57617;51.988;5.854;2023-05-23T06:45:06;101643.41;;;17.09;62.70
70229;BME280;57617;51.988;5.854;2023-05-23T06:47:31;101649.16;;;17.07;62.74
70229;BME280;57617;51.988;5.854;2023-05-23T06:49:56;101650.56;;;17.10;62.37
70229;BME280;57617;51.988;5.854;2023-05-23T06:52:22;101651.66;;;17.09;62.13
70229;BME280;57617;51.988;5.854;2023-05-23T06:54:47;101642.63;;;17.13;62.11
70229;BME280;57617;51.988;5.854;2023-05-23T06:57:12;101659.41;;;17.17;61.79
70229;BME280;57617;51.988;5.854;2023-05-23T06:59:38;101646.53;;;17.22;61.58
70229;BME280;57617;51.988;5.854;2023-05-23T07:02:03;101654.28;;;17.30;61.14
70229;BME280;57617;51.988;5.854;2023-05-23T07:04:28;101659.78;;;17.30;60.94
70229;BME280;57617;51.988;5.854;2023-05-23T07:06:54;101669.13;;;17.29;60.33
70229;BME280;57617;51.988;5.854;2023-05-23T07:09:19;101657.28;;;17.29;60.35
70229;BME280;57617;51.988;5.854;2023-05-23T07:11:44;101657.91;;;17.36;59.71
70229;BME280;57617;51.988;5.854;2023-05-23T07:14:10;101652.72;;;17.40;58.96
70229;BME280;57617;51.988;5.854;2023-05-23T07:16:35;101655.25;;;17.46;59.38
70229;BME280;57617;51.988;5.854;2023-05-23T07:19:00;101652.03;;;17.59;59.23
70229;BME280;57617;51.988;5.854;2023-05-23T07:21:27;101661.72;;;17.77;59.20
70229;BME280;57617;51.988;5.854;2023-05-23T07:23:52;101666.50;;;17.96;59.00
70229;BME280;57617;51.988;5.854;2023-05-23T07:26:17;101667.91;;;18.08;58.58
70229;BME280;57617;51.988;5.854;2023-05-23T07:28:43;101660.25;;;18.11;58.01
70229;BME280;57617;51.988;5.854;2023-05-23T07:31:08;101669.56;;;18.09;57.52
70229;BME280;57617;51.988;5.854;2023-05-23T07:33:33;101672.00;;;18.01;57.37
70229;BME280;57617;51.988;5.854;2023-05-23T07:35:59;101681.59;;;17.93;57.45
70229;BME280;57617;51.988;5.854;2023-05-23T07:38:25;101678.00;;;17.88;57.46
70229;BME280;57617;51.988;5.854;2023-05-23T07:40:50;101671.09;;;17.81;57.45
70229;BME280;57617;51.988;5.854;2023-05-23T07:43:16;101682.13;;;17.86;57.22
70229;BME280;57617;51.988;5.854;2023-05-23T07:45:41;101681.56;;;17.88;57.38
70229;BME280;57617;51.988;5.854;2023-05-23T07:48:07;101685.97;;;17.85;57.14
70229;BME280;57617;51.988;5.854;2023-05-23T07:50:33;101698.88;;;17.84;57.08
70229;BME280;57617;51.988;5.854;2023-05-23T07:52:58;101690.38;;;17.86;56.98
70229;BME280;57617;51.988;5.854;2023-05-23T07:55:23;101698.34;;;17.87;57.14
70229;BME280;57617;51.988;5.854;2023-05-23T07:57:48;101701.88;;;17.83;57.20
70229;BME280;57617;51.988;5.854;2023-05-23T08:00:14;101707.38;;;17.83;57.20
70229;BME280;57617;51.988;5.854;2023-05-23T08:02:40;101702.16;;;17.81;57.14
70229;BME280;57617;51.988;5.854;2023-05-23T08:05:05;101702.97;;;17.77;57.45
70229;BME280;57617;51.988;5.854;2023-05-23T08:07:31;101695.75;;;17.66;57.46
70229;BME280;57617;51.988;5.854;2023-05-23T08:09:56;101708.91;;;17.63;57.56
70229;BME280;57617;51.988;5.854;2023-05-23T08:12:21;101708.09;;;17.63;57.71
70229;BME280;57617;51.988;5.854;2023-05-23T08:14:47;101713.88;;;17.67;58.07
70229;BME280;57617;51.988;5.854;2023-05-23T08:17:12;101708.16;;;17.73;57.89
70229;BME280;57617;51.988;5.854;2023-05-23T08:19:37;101716.97;;;17.75;57.64
70229;BME280;57617;51.988;5.854;2023-05-23T08:22:03;101706.81;;;17.76;57.45
70229;BME280;57617;51.988;5.854;2023-05-23T08:24:29;101716.44;;;17.78;57.32
70229;BME280;57617;51.988;5.854;2023-05-23T08:26:54;101718.13;;;17.84;57.16
70229;BME280;57617;51.988;5.854;2023-05-23T08:29:20;101725.56;;;17.88;57.32
70229;BME280;57617;51.988;5.854;2023-05-23T08:31:46;101726.16;;;17.96;57.62
70229;BME280;57617;51.988;5.854;2023-05-23T08:34:11;101739.31;;;17.93;57.56
70229;BME280;57617;51.988;5.854;2023-05-23T08:36:38;101735.75;;;17.88;57.07
70229;BME280;57617;51.988;5.854;2023-05-23T08:39:03;101745.09;;;17.87;57.12
70229;BME280;57617;51.988;5.854;2023-05-23T08:41:29;101745.13;;;17.92;57.01
70229;BME280;57617;51.988;5.854;2023-05-23T08:43:56;101741.56;;;17.97;56.91
70229;BME280;57617;51.988;5.854;2023-05-23T08:46:21;101742.13;;;18.03;56.69
70229;BME280;57617;51.988;5.854;2023-05-23T08:48:50;101743.28;;;18.13;55.94
70229;BME280;57617;51.988;5.854;2023-05-23T08:51:17;101749.69;;;18.23;55.87
70229;BME280;57617;51.988;5.854;2023-05-23T08:53:44;101746.63;;;18.24;55.50
70229;BME280;57617;51.988;5.854;2023-05-23T08:56:14;101745.56;;;18.26;55.68
70229;BME280;57617;51.988;5.854;2023-05-23T08:58:40;101744.47;;;18.27;55.50
70229;BME280;57617;51.988;5.854;2023-05-23T09:01:07;101751.59;;;18.27;55.40
70229;BME280;57617;51.988;5.854;2023-05-23T09:03:34;101752.97;;;18.25;54.80
70229;BME280;57617;51.988;5.854;2023-05-23T09:06:05;101752.13;;;18.24;54.71
70229;BME280;57617;51.988;5.854;2023-05-23T09:08:32;101759.59;;;18.29;54.73
70229;BME280;57617;51.988;5.854;2023-05-23T09:10:57;101758.81;;;18.34;54.39
70229;BME280;57617;51.988;5.854;2023-05-23T09:13:23;101749.97;;;18.32;54.23
70229;BME280;57617;51.988;5.854;2023-05-23T09:18:25;101769.34;;;18.47;54.03
70229;BME280;57617;51.988;5.854;2023-05-23T09:20:51;101774.84;;;18.52;53.81
70229;BME280;57617;51.988;5.854;2023-05-23T09:23:16;101770.72;;;18.49;53.95
70229;BME280;57617;51.988;5.854;2023-05-23T09:25:46;101776.75;;;18.46;53.74
70229;BME280;57617;51.988;5.854;2023-05-23T09:28:11;101772.91;;;18.47;53.72
70229;BME280;57617;51.988;5.854;2023-05-23T09:30:37;101771.31;;;18.61;54.10
70229;BME280;57617;51.988;5.854;2023-05-23T09:33:03;101779.88;;;18.75;53.79
70229;BME280;57617;51.988;5.854;2023-05-23T09:35:28;101782.94;;;18.88;53.54
70229;BME280;57617;51.988;5.854;2023-05-23T09:37:55;101773.31;;;18.96;53.15
70229;BME280;57617;51.988;5.854;2023-05-23T09:40:28;101770.56;;;19.01;53.22
70229;BME280;57617;51.988;5.854;2023-05-23T09:42:53;101771.97;;;19.08;52.76
70229;BME280;57617;51.988;5.854;2023-05-23T09:45:19;101767.31;;;19.19;52.53
70229;BME280;57617;51.988;5.854;2023-05-23T09:47:51;101780.00;;;19.30;51.30
70229;BME280;57617;51.988;5.854;2023-05-23T09:50:16;101772.56;;;19.40;51.76
70229;BME280;57617;51.988;5.854;2023-05-23T09:52:42;101770.91;;;19.44;51.31
70229;BME280;57617;51.988;5.854;2023-05-23T09:55:08;101784.16;;;19.42;50.95
70229;BME280;57617;51.988;5.854;2023-05-23T09:57:40;101781.13;;;19.44;49.92
70229;BME280;57617;51.988;5.854;2023-05-23T10:00:10;101781.13;;;19.54;50.14
70229;BME280;57617;51.988;5.854;2023-05-23T10:02:57;101775.03;;;19.72;48.94
70229;BME280;57617;51.988;5.854;2023-05-23T10:05:30;101772.78;;;19.89;49.86
70229;BME280;57617;51.988;5.854;2023-05-23T10:07:58;101763.41;;;20.00;48.79
70229;BME280;57617;51.988;5.854;2023-05-23T10:10:25;101766.13;;;20.20;48.47
70229;BME280;57617;51.988;5.854;2023-05-23T10:12:54;101746.53;;;20.16;47.89
70229;BME280;57617;51.988;5.854;2023-05-23T10:15:25;101767.69;;;20.46;48.15
70229;BME280;57617;51.988;5.854;2023-05-23T10:18:05;101762.13;;;20.51;46.75
70229;BME280;57617;51.988;5.854;2023-05-23T10:20:32;101772.69;;;20.39;48.30
70229;BME280;57617;51.988;5.854;2023-05-23T10:23:00;101771.59;;;20.35;48.24
70229;BME280;57617;51.988;5.854;2023-05-23T10:25:26;101768.53;;;20.36;48.51
70229;BME280;57617;51.988;5.854;2023-05-23T10:27:56;101764.34;;;20.49;47.43
70229;BME280;57617;51.988;5.854;2023-05-23T10:30:26;101767.84;;;20.69;47.99
70229;BME280;57617;51.988;5.854;2023-05-23T10:32:53;101776.00;;;20.94;47.60
70229;BME280;57617;51.988;5.854;2023-05-23T10:35:34;101771.50;;;21.08;44.51
70229;BME280;57617;51.988;5.854;2023-05-23T10:43:52;101781.66;;;20.69;45.96
70229;BME280;57617;51.988;5.854;2023-05-23T10:46:19;101770.59;;;20.74;47.16
70229;BME280;57617;51.988;5.854;2023-05-23T10:48:53;101776.41;;;20.68;46.64
70229;BME280;57617;51.988;5.854;2023-05-23T10:51:21;101778.28;;;20.77;46.93
70229;BME280;57617;51.988;5.854;2023-05-23T10:53:52;101773.00;;;20.91;46.04
70229;BME280;57617;51.988;5.854;2023-05-23T10:56:20;101777.94;;;20.89;46.20
70229;BME280;57617;51.988;5.854;2023-05-23T10:58:54;101779.13;;;20.78;45.37
70229;BME280;57617;51.988;5.854;2023-05-23T11:01:20;101783.28;;;20.75;45.53
70229;BME280;57617;51.988;5.854;2023-05-23T11:06:30;101781.13;;;20.62;44.86
70229;BME280;57617;51.988;5.854;2023-05-23T11:12:00;101768.63;;;20.75;43.17
70229;BME280;57617;51.988;5.854;2023-05-23T11:14:30;101770.53;;;20.84;45.04
70229;BME280;57617;51.988;5.854;2023-05-23T11:19:37;101763.00;;;21.00;45.31
70229;BME280;57617;51.988;5.854;2023-05-23T11:22:03;101772.19;;;20.90;45.06
70229;BME280;57617;51.988;5.854;2023-05-23T11:24:51;101775.22;;;20.84;45.17
70229;BME280;57617;51.988;5.854;2023-05-23T11:32:22;101777.13;;;20.93;45.60
70229;BME280;57617;51.988;5.854;2023-05-23T11:34:48;101771.59;;;20.93;44.81
70229;BME280;57617;51.988;5.854;2023-05-23T11:37:13;101785.16;;;20.90;44.81
70229;BME280;57617;51.988;5.854;2023-05-23T11:39:39;101798.72;;;20.81;44.72
70229;BME280;57617;51.988;5.854;2023-05-23T11:42:04;101784.91;;;20.81;44.54
70229;BME280;57617;51.988;5.854;2023-05-23T11:44:30;101797.63;;;20.77;43.72
70229;BME280;57617;51.988;5.854;2023-05-23T11:47:13;101784.38;;;20.79;42.64
70229;BME280;57617;51.988;5.854;2023-05-23T11:49:39;101796.28;;;20.70;43.81
70229;BME280;57617;51.988;5.854;2023-05-23T11:52:05;101800.47;;;20.57;43.87
70229;BME280;57617;51.988;5.854;2023-05-23T11:54:32;101788.66;;;20.47;44.02
70229;BME280;57617;51.988;5.854;2023-05-23T11:56:57;101803.50;;;20.56;44.79
70229;BME280;57617;51.988;5.854;2023-05-23T11:59:24;101794.63;;;20.69;44.10
70229;BME280;57617;51.988;5.854;2023-05-23T12:01:53;101797.56;;;20.87;44.79
70229;BME280;57617;51.988;5.854;2023-05-23T12:04:19;101797.78;;;21.01;43.92
70229;BME280;57617;51.988;5.854;2023-05-23T12:06:48;101792.72;;;21.18;43.37
70229;BME280;57617;51.988;5.854;2023-05-23T12:09:14;101797.63;;;21.26;43.64
70229;BME280;57617;51.988;5.854;2023-05-23T12:11:41;101800.09;;;21.27;43.33
70229;BME280;57617;51.988;5.854;2023-05-23T12:14:07;101795.81;;;21.11;43.17
70229;BME280;57617;51.988;5.854;2023-05-23T12:16:33;101797.75;;;21.06;43.47
70229;BME280;57617;51.988;5.854;2023-05-23T12:19:00;101795.00;;;21.06;42.96
70229;BME280;57617;51.988;5.854;2023-05-23T12:21:26;101782.59;;;20.98;42.49
70229;BME280;57617;51.988;5.854;2023-05-23T12:24:13;101812.22;;;20.93;41.63
70229;BME280;57617;51.988;5.854;2023-05-23T12:26:49;101804.16;;;21.01;42.44
70229;BME280;57617;51.988;5.854;2023-05-23T12:29:17;101805.50;;;21.09;42.11
70229;BME280;57617;51.988;5.854;2023-05-23T12:31:43;101797.22;;;21.04;42.45
70229;BME280;57617;51.988;5.854;2023-05-23T12:34:10;101808.03;;;21.00;42.73
70229;BME280;57617;51.988;5.854;2023-05-23T12:36:35;101822.38;;;21.02;42.50
70229;BME280;57617;51.988;5.854;2023-05-23T12:39:03;101815.91;;;21.17;42.54
70229;BME280;57617;51.988;5.854;2023-05-23T12:41:31;101815.81;;;21.32;42.16
70229;BME280;57617;51.988;5.854;2023-05-23T12:43:56;101811.72;;;21.24;41.93
70229;BME280;57617;51.988;5.854;2023-05-23T12:46:25;101821.25;;;21.03;42.01
70229;BME280;57617;51.988;5.854;2023-05-23T12:48:51;101833.47;;;20.87;42.30
70229;BME280;57617;51.988;5.854;2023-05-23T12:51:17;101830.50;;;20.74;42.35
70229;BME280;57617;51.988;5.854;2023-05-23T12:53:43;101838.50;;;20.75;42.59
70229;BME280;57617;51.988;5.854;2023-05-23T12:56:08;101827.13;;;20.87;42.00
70229;BME280;57617;51.988;5.854;2023-05-23T12:58:34;101817.19;;;20.81;42.01
70229;BME280;57617;51.988;5.854;2023-05-23T13:01:00;101826.88;;;20.78;42.02
70229;BME280;57617;51.988;5.854;2023-05-23T13:03:27;101818.31;;;20.80;42.40
70229;BME280;57617;51.988;5.854;2023-05-23T13:05:53;101810.22;;;20.98;42.30
70229;BME280;57617;51.988;5.854;2023-05-23T13:08:19;101814.34;;;21.06;42.42
70229;BME280;57617;51.988;5.854;2023-05-23T13:10:45;101817.09;;;21.06;42.12
70229;BME280;57617;51.988;5.854;2023-05-23T13:13:10;101808.88;;;20.96;42.27
70229;BME280;57617;51.988;5.854;2023-05-23T13:15:36;101822.13;;;20.99;42.14